WetterOnline ( http://www.wetteronline.de )

Wetter aktuell Bremervörde

Aktuelles Wetter: Bremervörde (5m)

6-stündlich | Neueste Meldungen
Ortszeit Temperatur Wetter
Di, 30.05. 8:00 19.0° C leicht bewölkt
Di, 30.05. 2:00 16.5° C wolkenlos
Mo, 29.05. 20:00 22.1° C bewölkt
Mo, 29.05. 14:00 23.3° C bedeckt
Ortszeit Temperatur Wetter
Di, 30.05. 13:00 24.3° C bewölkt
Di, 30.05. 12:30 24.1° C wolkig
Di, 30.05. 12:00 23.2° C wolkig
Di, 30.05. 11:30 23.8° C leicht bewölkt
Di, 30.05. 11:00 22.7° C wolkig
Di, 30.05. 10:30 22.0° C leicht bewölkt
Ortszeit Relative Feuchte Sichtweite
Di, 30.05. 8:00 95% 3.7 km
Di, 30.05. 2:00 91% 11 km
Mo, 29.05. 20:00 72% 12 km
Mo, 29.05. 14:00 54% 16 km
Ortszeit Relative Feuchte Sichtweite
Di, 30.05. 13:00 65% 10 km
Di, 30.05. 12:30 66% 12 km
Di, 30.05. 12:00 68% 9 km
Di, 30.05. 11:30 70% 8 km
Di, 30.05. 11:00 76% 8 km
Di, 30.05. 10:30 81% 6 km
Ortszeit Niederschlagsmenge Niederschlagsart
Di, 30.05. 8:00 2 l/m2 in 12 Std. Regen
Di, 30.05. 2:00 0,0 l/m2 in 6 Std. -
Mo, 29.05. 20:00 0,0 l/m2 in 12 Std. -
Mo, 29.05. 14:00 0,0 l/m2 in 6 Std. -
Ortszeit Niederschlagsmenge Niederschlagsart
Di, 30.05. 13:00 0,0 l/m2 in 1 Std. -
Di, 30.05. 12:30 keine Meldung -
Di, 30.05. 12:00 0,0 l/m2 in 1 Std. -
Di, 30.05. 11:30 keine Meldung -
Di, 30.05. 11:00 0,0 l/m2 in 1 Std. -
Di, 30.05. 10:30 keine Meldung -
Ortszeit Stärke Spitze Richtung
km/h Bft. km/h Grad Sektor
Di, 30.05. 8:00 9 2 43 240° SW
Di, 30.05. 2:00 4 1 22 20° N
Mo, 29.05. 20:00 17 3 26 30° NO
Mo, 29.05. 14:00 4 1 22 250° W
Ortszeit Stärke Spitze Richtung
km/h Bft. km/h Grad Sektor
Di, 30.05. 13:00 22 4 40 290° W
Di, 30.05. 12:30 18 3 40 270° W
Di, 30.05. 12:00 19 3 30 270° W
Di, 30.05. 11:30 14 3 29 280° W
Di, 30.05. 11:00 14 3 22 260° W
Di, 30.05. 10:30 13 3 19 280° W
Ortszeit Untergrenze Bedeckung Gattung
total tief tief mittel hoch
Di, 30.05. 8:00 2400 m 2/8 2/8 - - -
Di, 30.05. 2:00 - 0/8 0/8 - - -
Mo, 29.05. 20:00 4200 m 7/8 7/8 - - -
Mo, 29.05. 14:00 5700 m 8/8 8/8 - - -
Ortszeit Bedeckungsgrad in Achtel und Wolkenuntergrenze
Di, 30.05. 13:00 3(960m) 4(1200m) 7(2100m)
Di, 30.05. 12:30 4(960m) 5(1230m) 6(2400m)
Di, 30.05. 12:00 1(900m) 5(2400m)
Di, 30.05. 11:30 1(690m) 3(2400m)
Di, 30.05. 11:00 5(2100m) 6(2400m)
Di, 30.05. 10:30 3(2100m)
Ortszeit Luftdruck NN (hPa) Tendenz (hPa in 3 Std.)
Di, 30.05. 8:00 1011 - 0,7
Di, 30.05. 2:00 1010 - 1,1
Mo, 29.05. 20:00 1011 - 0,5
Mo, 29.05. 14:00 1013 - 1,9
Ortszeit Luftdruck NN (hPa) Tendenz (hPa in 3 Std.)
Di, 30.05. 13:00 1011 0,0
Di, 30.05. 12:30 1011 - 0,3
Di, 30.05. 12:00 1011 0,0
Di, 30.05. 11:30 1011 - 0,3
Di, 30.05. 11:00 1011 0,0
Di, 30.05. 10:30 1010 + 0,5
Ortszeit Schneehöhe (cm)
Di, 30.05. 8:00 -
Di, 30.05. 2:00 -
Mo, 29.05. 20:00 -
Mo, 29.05. 14:00 -
Ortszeit Schneehöhe (cm)
Di, 30.05. 13:00 -
Di, 30.05. 12:30 -
Di, 30.05. 12:00 -
Di, 30.05. 11:30 -
Di, 30.05. 11:00 -
Di, 30.05. 10:30 -
Link zu dieser Seite / Seite empfehlen

Das Wetter in ...